Time;durP1;ratioP1;P1;durP2;ratioP2;P2;SDS_P1;SDS_P2;PMS_P1;PMS_P2;Temp;Humidity;BMP_temperature;BMP_pressure;BME280_temperature;BME280_humidity;BME280_pressure;Samples;Min_cycle;Max_cycle;Signal;HPM_P1;HPM_P2
2023/08/05 00:01:51;;;;;;;;;;;;;;;;;;7370890;19;913;-61
2023/08/05 00:04:19;;;;;;;;;;;;;;;;;;7367153;19;1799;-61
2023/08/05 00:06:47;;;;;;;;;;;;;;;;;;7366654;19;2185;-62
2023/08/05 00:09:15;;;;;;;;;;;;;;;;;;7368952;19;1780;-63
2023/08/05 00:11:44;;;;;;;;;;;;;;;;;;7367323;19;1845;-62
2023/08/05 00:14:12;;;;;;;;;;;;;;;;;;7369369;19;1982;-57
2023/08/05 00:16:40;;;;;;;;;;;;;;;;;;7368643;19;1790;-61
2023/08/05 00:19:08;;;;;;;;;;;;;;;;;;7367890;19;1724;-61
2023/08/05 00:21:36;;;;;;;;;;;;;;;;;;7368483;19;1725;-62
2023/08/05 00:24:04;;;;;;;;;;;;;;;;;;7368536;19;1720;-61
2023/08/05 00:26:32;;;;;;;;;;;;;;;;;;7369281;19;1715;-60
2023/08/05 00:29:00;;;;;;;;;;;;;;;;;;7367384;19;1940;-60
2023/08/05 00:31:29;;;;;;;;;;;;;;;;;;7364681;19;1873;-61
2023/08/05 00:33:57;;;;;;;;;;;;;;;;;;7368697;19;2078;-59
2023/08/05 00:36:25;;;;;;;;;;;;;;;;;;7369796;19;1885;-60
2023/08/05 00:38:53;;;;;;;;;;;;;;;;;;7366282;19;1983;-60
2023/08/05 00:41:21;;;;;;;;;;;;;;;;;;7363539;19;1893;-59
2023/08/05 00:43:49;;;;;;;;;;;;;;;;;;7368157;19;1804;-56
2023/08/05 00:46:22;;;;;;;;;;;;;;;;;;7368675;19;1730;-62
2023/08/05 00:48:51;;;;;;;;;;;;;;;;;;7367953;19;1678;-62
2023/08/05 00:51:19;;;;;;;;;;;;;;;;;;7366175;19;1857;-62
2023/08/05 00:53:47;;;;;;;;;;;;;;;;;;7369756;19;1736;-62
2023/08/05 00:56:15;;;;;;;;;;;;;;;;;;7371046;19;1566;-62
2023/08/05 00:58:43;;;;;;;;;;;;;;;;;;7369103;19;900;-62
2023/08/05 01:01:12;;;;;;;;;;;;;;;;;;7366400;19;1902;-61
2023/08/05 01:03:40;;;;;;;;;;;;;;;;;;7365836;19;925;-62
2023/08/05 01:06:09;;;;;;;;;;;;;;;;;;7370058;19;1954;-62
2023/08/05 01:08:37;;;;;;;;;;;;;;;;;;7364535;19;827;-62
2023/08/05 01:11:05;;;;;;;;;;;;;;;;;;7367691;19;1857;-62
2023/08/05 01:13:33;;;;;;;;;;;;;;;;;;7368372;19;1649;-61
2023/08/05 01:16:01;;;;;;;;;;;;;;;;;;7370176;19;2086;-61
2023/08/05 01:18:29;;;;;;;;;;;;;;;;;;7368700;19;1695;-61
2023/08/05 01:20:58;;;;;;;;;;;;;;;;;;7365960;19;2026;-62
2023/08/05 01:23:26;;;;;;;;;;;;;;;;;;7366567;19;1668;-61
2023/08/05 01:25:54;;;;;;;;;;;;;;;;;;7366730;19;1796;-62
2023/08/05 01:28:22;;;;;;;;;;;;;;;;;;7366181;19;1620;-62
2023/08/05 01:30:50;;;;;;;;;;;;;;;;;;7362712;19;1850;-61
2023/08/05 01:33:18;;;;;;;;;;;;;;;;;;7367546;19;1799;-62
2023/08/05 01:35:46;;;;;;;;;;;;;;;;;;7366507;19;2091;-61
2023/08/05 01:38:14;;;;;;;;;;;;;;;;;;7367583;19;1743;-61
2023/08/05 01:40:43;;;;;;;;;;;;;;;;;;7364335;19;1992;-60
2023/08/05 01:43:11;;;;;;;;;;;;;;;;;;7367972;19;1723;-61
2023/08/05 01:45:39;;;;;;;;;;;;;;;;;;7364226;19;2125;-60
2023/08/05 01:48:07;;;;;;;;;;;;;;;;;;7363942;19;1605;-62
2023/08/05 01:50:36;;;;;;;;;;;;;;;;;;7366094;19;1902;-62
2023/08/05 01:53:04;;;;;;;;;;;;;;;;;;7373933;19;1917;-61
2023/08/05 01:55:32;;;;;;;;;;;;;;;;;;7372575;19;1693;-61
2023/08/05 01:58:01;;;;;;;;;;;;;;;;;;7373788;19;1797;-61
2023/08/05 02:00:29;;;;;;;;;;;;;;;;;;7371922;19;1708;-61
2023/08/05 02:02:57;;;;;;;;;;;;;;;;;;7372059;19;1837;-60
2023/08/05 02:05:25;;;;;;;;;;;;;;;;;;7371220;19;1885;-61
2023/08/05 02:07:53;;;;;;;;;;;;;;;;;;7372927;19;1737;-62
2023/08/05 02:10:22;;;;;;;;;;;;;;;;;;7369450;19;1861;-61
2023/08/05 02:12:50;;;;;;;;;;;;;;;;;;7371315;19;1579;-62
2023/08/05 02:15:18;;;;;;;;;;;;;;;;;;7370638;19;1680;-60
2023/08/05 02:17:46;;;;;;;;;;;;;;;;;;7371776;19;2122;-61
2023/08/05 02:20:14;;;;;;;;;;;;;;;;;;7370868;19;2097;-62
2023/08/05 02:22:42;;;;;;;;;;;;;;;;;;7371150;19;1983;-61
2023/08/05 02:25:10;;;;;;;;;;;;;;;;;;7373317;19;1936;-60
2023/08/05 02:27:39;;;;;;;;;;;;;;;;;;7370475;19;1846;-61
2023/08/05 02:30:08;;;;;;;;;;;;;;;;;;7371573;19;1285;-58
2023/08/05 02:32:36;;;;;;;;;;;;;;;;;;7369858;19;1841;-59
2023/08/05 02:35:04;;;;;;;;;;;;;;;;;;7373123;19;1728;-61
2023/08/05 02:37:32;;;;;;;;;;;;;;;;;;7372849;19;1699;-61
2023/08/05 02:40:00;;;;;;;;;;;;;;;;;;7370262;19;1608;-61
2023/08/05 02:42:28;;;;;;;;;;;;;;;;;;7373733;19;1806;-61
2023/08/05 02:44:56;;;;;;;;;;;;;;;;;;7369989;19;1749;-62
2023/08/05 02:47:25;;;;;;;;;;;;;;;;;;7373466;19;1542;-61
2023/08/05 02:49:53;;;;;;;;;;;;;;;;;;7370068;19;1692;-61
2023/08/05 02:52:21;;;;;;;;;;;;;;;;;;7370775;19;1850;-58
2023/08/05 02:54:49;;;;;;;;;;;;;;;;;;7371268;19;1405;-62
2023/08/05 02:57:17;;;;;;;;;;;;;;;;;;7370481;19;2134;-62
2023/08/05 02:59:45;;;;;;;;;;;;;;;;;;7368359;19;1278;-61
2023/08/05 03:02:13;;;;;;;;;;;;;;;;;;7368939;19;1672;-62
2023/08/05 03:04:42;;;;;;;;;;;;;;;;;;7369791;19;845;-61
2023/08/05 03:07:10;;;;;;;;;;;;;;;;;;7369288;19;861;-61
2023/08/05 03:09:38;;;;;;;;;;;;;;;;;;7366802;19;1271;-60
2023/08/05 03:12:07;;;;;;;;;;;;;;;;;;7365954;19;1855;-62
2023/08/05 03:14:35;;;;;;;;;;;;;;;;;;7371857;19;1529;-61
2023/08/05 03:17:07;;;;;;;;;;;;;;;;;;7369867;19;1569;-61
2023/08/05 03:19:35;;;;;;;;;;;;;;;;;;7368004;19;2106;-62
2023/08/05 03:22:04;;;;;;;;;;;;;;;;;;7369636;19;1988;-62
2023/08/05 03:24:32;;;;;;;;;;;;;;;;;;7368443;19;2086;-62
2023/08/05 03:27:00;;;;;;;;;;;;;;;;;;7367638;19;1980;-56
2023/08/05 03:29:28;;;;;;;;;;;;;;;;;;7370660;19;1740;-61
2023/08/05 03:31:56;;;;;;;;;;;;;;;;;;7366656;19;1878;-60
2023/08/05 03:34:26;;;;;;;;;;;;;;;;;;7369830;19;1896;-62
2023/08/05 03:36:57;;;;;;;;;;;;;;;;;;7368383;19;1686;-62
2023/08/05 03:39:25;;;;;;;;;;;;;;;;;;7369059;19;1665;-60
2023/08/05 03:41:55;;;;;;;;;;;;;;;;;;7369200;19;1837;-61
2023/08/05 03:44:23;;;;;;;;;;;;;;;;;;7370338;19;2035;-61
2023/08/05 03:46:51;;;;;;;;;;;;;;;;;;7366372;19;1870;-61
2023/08/05 03:49:19;;;;;;;;;;;;;;;;;;7368492;19;1691;-62
2023/08/05 03:51:47;;;;;;;;;;;;;;;;;;7367302;19;1853;-62
2023/08/05 03:54:15;;;;;;;;;;;;;;;;;;7369996;19;1593;-61
2023/08/05 03:56:43;;;;;;;;;;;;;;;;;;7370235;19;1600;-62
2023/08/05 03:59:12;;;;;;;;;;;;;;;;;;7365882;19;1881;-62
2023/08/05 04:01:41;;;;;;;;;;;;;;;;;;7367622;19;1637;-60
2023/08/05 04:04:09;;;;;;;;;;;;;;;;;;7370684;19;1584;-57
2023/08/05 04:06:37;;;;;;;;;;;;;;;;;;7374316;19;1076;-60
2023/08/05 04:09:06;;;;;;;;;;;;;;;;;;7370833;19;1667;-57
2023/08/05 04:11:37;;;;;;;;;;;;;;;;;;7369453;19;1849;-60
2023/08/05 04:14:06;;;;;;;;;;;;;;;;;;7366826;19;1751;-62
2023/08/05 04:16:34;;;;;;;;;;;;;;;;;;7368746;19;1816;-62
2023/08/05 04:19:03;;;;;;;;;;;;;;;;;;7367547;19;1665;-62
2023/08/05 04:21:39;;;;;;;;;;;;;;;;;;7368273;19;1806;-61
2023/08/05 04:24:09;;;;;;;;;;;;;;;;;;7366721;19;1999;-61
2023/08/05 04:26:37;;;;;;;;;;;;;;;;;;7370029;19;1556;-58
2023/08/05 04:29:05;;;;;;;;;;;;;;;;;;7368347;19;1885;-60
2023/08/05 04:31:34;;;;;;;;;;;;;;;;;;7366788;19;1856;-62
2023/08/05 04:34:02;;;;;;;;;;;;;;;;;;7370131;19;1801;-60
2023/08/05 04:36:30;;;;;;;;;;;;;;;;;;7370818;19;1812;-62
2023/08/05 04:38:59;;;;;;;;;;;;;;;;;;7368445;19;1592;-60
2023/08/05 04:41:27;;;;;;;;;;;;;;;;;;7368199;19;1730;-61
2023/08/05 04:43:56;;;;;;;;;;;;;;;;;;7367586;19;1868;-62
2023/08/05 04:46:24;;;;;;;;;;;;;;;;;;7369782;19;1677;-58
2023/08/05 04:48:53;;;;;;;;;;;;;;;;;;7369247;19;1823;-61
2023/08/05 04:51:21;;;;;;;;;;;;;;;;;;7366606;19;1853;-61
2023/08/05 04:53:49;;;;;;;;;;;;;;;;;;7369550;19;1628;-62
2023/08/05 04:56:17;;;;;;;;;;;;;;;;;;7371102;19;1620;-63
2023/08/05 04:58:45;;;;;;;;;;;;;;;;;;7366623;19;1506;-61
2023/08/05 05:01:13;;;;;;;;;;;;;;;;;;7363746;19;1300;-62
2023/08/05 05:03:42;;;;;;;;;;;;;;;;;;7368541;19;954;-62
2023/08/05 05:06:10;;;;;;;;;;;;;;;;;;7367275;19;1202;-61
2023/08/05 05:08:38;;;;;;;;;;;;;;;;;;7365370;19;865;-63
2023/08/05 05:11:07;;;;;;;;;;;;;;;;;;7363165;19;1885;-61
2023/08/05 05:13:35;;;;;;;;;;;;;;;;;;7366571;19;1844;-64
2023/08/05 05:16:03;;;;;;;;;;;;;;;;;;7368132;19;1633;-63
2023/08/05 05:18:31;;;;;;;;;;;;;;;;;;7367196;19;1575;-63
2023/08/05 05:20:59;;;;;;;;;;;;;;;;;;7365104;19;1690;-63
2023/08/05 05:23:28;;;;;;;;;;;;;;;;;;7368135;19;1708;-64
2023/08/05 05:25:57;;;;;;;;;;;;;;;;;;7364241;19;1771;-63
2023/08/05 05:28:25;;;;;;;;;;;;;;;;;;7367288;19;1730;-64
2023/08/05 05:30:53;;;;;;;;;;;;;;;;;;7365043;19;1943;-64
2023/08/05 05:33:21;;;;;;;;;;;;;;;;;;7365347;19;1864;-68
2023/08/05 05:35:49;;;;;;;;;;;;;;;;;;7365853;19;1738;-65
2023/08/05 05:38:17;;;;;;;;;;;;;;;;;;7368035;19;1590;-62
2023/08/05 05:40:45;;;;;;;;;;;;;;;;;;7361869;19;1667;-63
2023/08/05 05:43:13;;;;;;;;;;;;;;;;;;7366270;19;1938;-64
2023/08/05 05:45:42;;;;;;;;;;;;;;;;;;7366917;19;1581;-64
2023/08/05 05:48:10;;;;;;;;;;;;;;;;;;7365572;19;1844;-63
2023/08/05 05:50:38;;;;;;;;;;;;;;;;;;7364062;19;1672;-64
2023/08/05 05:53:08;;;;;;;;;;;;;;;;;;7363945;19;1861;-64
2023/08/05 05:55:36;;;;;;;;;;;;;;;;;;7367048;19;1715;-63
2023/08/05 05:58:04;;;;;;;;;;;;;;;;;;7365521;19;1743;-64
2023/08/05 06:00:32;;;;;;;;;;;;;;;;;;7366311;19;1518;-63
2023/08/05 06:03:00;;;;;;;;;;;;;;;;;;7367016;19;1670;-63
2023/08/05 06:05:28;;;;;;;;;;;;;;;;;;7367008;19;1803;-64
2023/08/05 06:07:57;;;;;;;;;;;;;;;;;;7365879;19;1792;-63
2023/08/05 06:10:25;;;;;;;;;;;;;;;;;;7365261;19;1905;-64
2023/08/05 06:12:53;;;;;;;;;;;;;;;;;;7364723;19;1849;-63
2023/08/05 06:15:21;;;;;;;;;;;;;;;;;;7366812;19;1714;-63
2023/08/05 06:17:49;;;;;;;;;;;;;;;;;;7365374;19;1815;-64
2023/08/05 06:20:18;;;;;;;;;;;;;;;;;;7364069;19;1694;-64
2023/08/05 06:22:46;;;;;;;;;;;;;;;;;;7363455;19;2070;-64
2023/08/05 06:25:14;;;;;;;;;;;;;;;;;;7366870;19;1868;-65
2023/08/05 06:27:42;;;;;;;;;;;;;;;;;;7364870;19;1806;-63
2023/08/05 06:30:10;;;;;;;;;;;;;;;;;;7363760;19;1745;-63
2023/08/05 06:32:38;;;;;;;;;;;;;;;;;;7363683;19;1853;-63
2023/08/05 06:35:06;;;;;;;;;;;;;;;;;;7365049;19;1552;-63
2023/08/05 06:37:35;;;;;;;;;;;;;;;;;;7370198;19;1849;-63
2023/08/05 06:40:03;;;;;;;;;;;;;;;;;;7369724;19;1833;-63
2023/08/05 06:42:31;;;;;;;;;;;;;;;;;;7372774;19;1676;-64
2023/08/05 06:44:59;;;;;;;;;;;;;;;;;;7372644;19;1804;-64
2023/08/05 06:47:31;;;;;;;;;;;;;;;;;;7371691;19;1718;-64
2023/08/05 06:49:59;;;;;;;;;;;;;;;;;;7369782;19;1814;-62
2023/08/05 06:52:27;;;;;;;;;;;;;;;;;;7371851;19;1853;-64
2023/08/05 06:54:55;;;;;;;;;;;;;;;;;;7372429;19;1614;-65
2023/08/05 06:57:23;;;;;;;;;;;;;;;;;;7371000;19;860;-64
2023/08/05 06:59:51;;;;;;;;;;;;;;;;;;7370950;19;1549;-64
2023/08/05 07:02:20;;;;;;;;;;;;;;;;;;7371094;19;1639;-65
2023/08/05 07:04:48;;;;;;;;;;;;;;;;;;7371624;19;1739;-65
2023/08/05 07:07:16;;;;;;;;;;;;;;;;;;7370305;19;1665;-64
2023/08/05 07:09:44;;;;;;;;;;;;;;;;;;7368596;19;1883;-63
2023/08/05 07:12:12;;;;;;;;;;;;;;;;;;7371623;19;1842;-63
2023/08/05 07:14:44;;;;;;;;;;;;;;;;;;7370848;19;1608;-64
2023/08/05 07:17:12;;;;;;;;;;;;;;;;;;7370640;19;1705;-64
2023/08/05 07:19:40;;;;;;;;;;;;;;;;;;7368554;19;1653;-63
2023/08/05 07:22:08;;;;;;;;;;;;;;;;;;7370427;19;1770;-65
2023/08/05 07:24:37;;;;;;;;;;;;;;;;;;7370895;19;1701;-64
2023/08/05 07:27:05;;;;;;;;;;;;;;;;;;7369999;19;1609;-64
2023/08/05 07:29:33;;;;;;;;;;;;;;;;;;7368513;19;1804;-62
2023/08/05 07:32:01;;;;;;;;;;;;;;;;;;7369301;19;1850;-63
2023/08/05 07:34:31;;;;;;;;;;;;;;;;;;7370500;19;1798;-63
2023/08/05 07:36:59;;;;;;;;;;;;;;;;;;7370374;19;1653;-63
2023/08/05 07:39:33;;;;;;;;;;;;;;;;;;7365088;19;1270;-64
2023/08/05 07:42:02;;;;;;;;;;;;;;;;;;7368771;19;718;-65
2023/08/05 07:44:31;;;;;;;;;;;;;;;;;;7367963;19;807;-65
2023/08/05 07:46:59;;;;;;;;;;;;;;;;;;7367378;19;814;-64
2023/08/05 07:49:27;;;;;;;;;;;;;;;;;;7365157;19;1289;-64
2023/08/05 07:51:55;;;;;;;;;;;;;;;;;;7367848;19;877;-64
2023/08/05 07:54:24;;;;;;;;;;;;;;;;;;7365500;19;1839;-64
2023/08/05 07:56:53;;;;;;;;;;;;;;;;;;7368341;19;1645;-64
2023/08/05 07:59:23;;;;;;;;;;;;;;;;;;7366036;19;1836;-64
2023/08/05 08:01:54;;;;;;;;;;;;;;;;;;7371043;19;1816;-64
2023/08/05 08:04:22;;;;;;;;;;;;;;;;;;7371572;19;1623;-64
2023/08/05 08:06:52;;;;;;;;;;;;;;;;;;7368561;19;1800;-64
2023/08/05 08:09:20;;;;;;;;;;;;;;;;;;7370031;19;1705;-63
2023/08/05 08:11:48;;;;;;;;;;;;;;;;;;7367582;19;864;-63
2023/08/05 08:14:16;;;;;;;;;;;;;;;;;;7364975;19;1879;-64
2023/08/05 08:16:44;;;;;;;;;;;;;;;;;;7367114;19;783;-63
2023/08/05 08:19:14;;;;;;;;;;;;;;;;;;7367000;19;796;-64
2023/08/05 08:21:42;;;;;;;;;;;;;;;;;;7364741;19;1216;-65
2023/08/05 08:24:11;;;;;;;;;;;;;;;;;;7367508;19;1923;-65
2023/08/05 08:26:39;;;;;;;;;;;;;;;;;;7371164;19;1205;-65
2023/08/05 08:29:07;;;;;;;;;;;;;;;;;;7367794;19;1498;-64
2023/08/05 08:31:35;;;;;;;;;;;;;;;;;;7368410;19;1605;-65
2023/08/05 08:34:03;;;;;;;;;;;;;;;;;;7367268;19;1873;-65
2023/08/05 08:36:31;;;;;;;;;;;;;;;;;;7368176;19;2110;-64
2023/08/05 08:39:00;;;;;;;;;;;;;;;;;;7368014;19;1672;-65
2023/08/05 08:41:28;;;;;;;;;;;;;;;;;;7368183;19;1693;-64
2023/08/05 08:43:57;;;;;;;;;;;;;;;;;;7367295;19;835;-64
2023/08/05 08:46:25;;;;;;;;;;;;;;;;;;7367442;19;869;-64
2023/08/05 08:48:54;;;;;;;;;;;;;;;;;;7367050;19;802;-64
2023/08/05 08:51:23;;;;;;;;;;;;;;;;;;7363784;19;1269;-63
2023/08/05 08:53:51;;;;;;;;;;;;;;;;;;7363778;19;1987;-65
2023/08/05 08:56:19;;;;;;;;;;;;;;;;;;7369633;19;1871;-64
2023/08/05 08:58:47;;;;;;;;;;;;;;;;;;7366576;19;1632;-63
2023/08/05 09:01:16;;;;;;;;;;;;;;;;;;7364721;19;1891;-64
2023/08/05 09:03:44;;;;;;;;;;;;;;;;;;7368883;19;1409;-64
2023/08/05 09:06:12;;;;;;;;;;;;;;;;;;7366360;19;811;-63
2023/08/05 09:08:40;;;;;;;;;;;;;;;;;;7364636;19;1027;-65
2023/08/05 09:11:08;;;;;;;;;;;;;;;;;;7364137;19;1353;-64
2023/08/05 09:13:36;;;;;;;;;;;;;;;;;;7364096;19;1853;-64
2023/08/05 09:16:05;;;;;;;;;;;;;;;;;;7366213;19;857;-64
2023/08/05 09:18:33;;;;;;;;;;;;;;;;;;7364444;19;1948;-64
2023/08/05 09:21:01;;;;;;;;;;;;;;;;;;7368311;19;1433;-67
2023/08/05 09:23:30;;;;;;;;;;;;;;;;;;7365406;19;785;-64
2023/08/05 09:25:58;;;;;;;;;;;;;;;;;;7367155;19;1638;-64
2023/08/05 09:28:26;;;;;;;;;;;;;;;;;;7369900;19;1454;-63
2023/08/05 09:30:54;;;;;;;;;;;;;;;;;;7362285;19;1627;-64
2023/08/05 09:33:22;;;;;;;;;;;;;;;;;;7367084;19;1869;-64
2023/08/05 09:35:51;;;;;;;;;;;;;;;;;;7365254;19;846;-64
2023/08/05 09:38:20;;;;;;;;;;;;;;;;;;7364663;19;1601;-65
2023/08/05 09:40:50;;;;;;;;;;;;;;;;;;7364466;19;1514;-64
2023/08/05 09:43:19;;;;;;;;;;;;;;;;;;7370704;19;1594;-64
2023/08/05 09:45:49;;;;;;;;;;;;;;;;;;7364856;19;875;-62
2023/08/05 09:48:19;;;;;;;;;;;;;;;;;;7364416;19;915;-65
2023/08/05 09:50:48;;;;;;;;;;;;;;;;;;7365584;19;1946;-65
2023/08/05 09:53:16;;;;;;;;;;;;;;;;;;7365980;19;2164;-64
2023/08/05 09:55:45;;;;;;;;;;;;;;;;;;7365187;19;1495;-64
2023/08/05 09:58:13;;;;;;;;;;;;;;;;;;7360848;19;839;-64
2023/08/05 10:00:43;;;;;;;;;;;;;;;;;;7362800;19;1387;-64
2023/08/05 10:03:13;;;;;;;;;;;;;;;;;;7364514;19;885;-63
2023/08/05 10:05:43;;;;;;;;;;;;;;;;;;7364529;19;863;-64
2023/08/05 10:08:11;;;;;;;;;;;;;;;;;;7363298;19;670;-63
2023/08/05 10:10:40;;;;;;;;;;;;;;;;;;7363040;19;1227;-64
2023/08/05 10:13:08;;;;;;;;;;;;;;;;;;7370053;19;1869;-64
2023/08/05 10:15:37;;;;;;;;;;;;;;;;;;7368772;19;1927;-63
2023/08/05 10:18:05;;;;;;;;;;;;;;;;;;7372616;19;2293;-63
2023/08/05 10:20:33;;;;;;;;;;;;;;;;;;7371784;19;2073;-64
2023/08/05 10:23:01;;;;;;;;;;;;;;;;;;7374962;19;1830;-63
2023/08/05 10:25:29;;;;;;;;;;;;;;;;;;7373502;19;1488;-65
2023/08/05 10:27:57;;;;;;;;;;;;;;;;;;7370970;19;1027;-64
2023/08/05 10:30:25;;;;;;;;;;;;;;;;;;7369534;19;1798;-63
2023/08/05 10:32:54;;;;;;;;;;;;;;;;;;7373135;19;1858;-64
2023/08/05 10:35:19;;;;;;;;;;;;;;;;;;7372109;19;2116;-64
2023/08/05 10:37:47;;;;;;;;;;;;;;;;;;7372781;19;1678;-66
2023/08/05 10:40:15;;;;;;;;;;;;;;;;;;7368184;19;1338;-64
2023/08/05 10:42:44;;;;;;;;;;;;;;;;;;7371509;19;1775;-64
2023/08/05 10:45:12;;;;;;;;;;;;;;;;;;7373603;19;1447;-64
2023/08/05 10:47:40;;;;;;;;;;;;;;;;;;7370632;19;857;-64
2023/08/05 10:50:08;;;;;;;;;;;;;;;;;;7366374;19;2077;-64
2023/08/05 10:52:36;;;;;;;;;;;;;;;;;;7371110;19;1730;-63
2023/08/05 10:55:04;;;;;;;;;;;;;;;;;;7371469;19;1849;-64
2023/08/05 10:57:32;;;;;;;;;;;;;;;;;;7369933;19;824;-64
2023/08/05 11:00:01;;;;;;;;;;;;;;;;;;7366758;19;1296;-64
2023/08/05 11:02:31;;;;;;;;;;;;;;;;;;7369452;19;838;-63
2023/08/05 11:04:59;;;;;;;;;;;;;;;;;;7368679;19;851;-64
2023/08/05 11:07:27;;;;;;;;;;;;;;;;;;7369900;19;810;-63
2023/08/05 11:09:55;;;;;;;;;;;;;;;;;;7371805;19;2040;-64
2023/08/05 11:12:23;;;;;;;;;;;;;;;;;;7373387;19;1540;-63
2023/08/05 11:14:51;;;;;;;;;;;;;;;;;;7368068;19;1851;-63
2023/08/05 11:17:20;;;;;;;;;;;;;;;;;;7371690;19;1822;-63
2023/08/05 11:19:48;;;;;;;;;;;;;;;;;;7369547;19;1991;-64
2023/08/05 11:22:16;;;;;;;;;;;;;;;;;;7369311;19;2003;-63
2023/08/05 11:24:44;;;;;;;;;;;;;;;;;;7368538;19;2740;-62
2023/08/05 11:27:12;;;;;;;;;;;;;;;;;;7372019;19;1892;-62
2023/08/05 11:29:40;;;;;;;;;;;;;;;;;;7368052;19;1992;-63
2023/08/05 11:32:09;;;;;;;;;;;;;;;;;;7371137;19;1927;-63
2023/08/05 11:34:37;;;;;;;;;;;;;;;;;;7369866;19;1939;-62
2023/08/05 11:37:05;;;;;;;;;;;;;;;;;;7370828;19;1962;-63
2023/08/05 11:39:33;;;;;;;;;;;;;;;;;;7372897;19;1640;-63
2023/08/05 11:42:01;;;;;;;;;;;;;;;;;;7372395;19;1963;-63
2023/08/05 11:44:29;;;;;;;;;;;;;;;;;;7371083;19;1481;-63
2023/08/05 11:46:58;;;;;;;;;;;;;;;;;;7366668;19;883;-63
2023/08/05 11:49:26;;;;;;;;;;;;;;;;;;7367519;19;1337;-63
2023/08/05 11:51:54;;;;;;;;;;;;;;;;;;7367950;19;799;-63
2023/08/05 11:54:22;;;;;;;;;;;;;;;;;;7366854;19;1838;-63
2023/08/05 11:56:50;;;;;;;;;;;;;;;;;;7367857;19;791;-67
2023/08/05 11:59:18;;;;;;;;;;;;;;;;;;7366553;19;803;-64
2023/08/05 12:01:46;;;;;;;;;;;;;;;;;;7365462;19;798;-64
2023/08/05 12:04:14;;;;;;;;;;;;;;;;;;7367488;19;798;-63
2023/08/05 12:06:43;;;;;;;;;;;;;;;;;;7369270;19;869;-65
2023/08/05 12:09:11;;;;;;;;;;;;;;;;;;7367854;19;815;-65
2023/08/05 12:11:39;;;;;;;;;;;;;;;;;;7365034;19;1357;-66
2023/08/05 12:14:07;;;;;;;;;;;;;;;;;;7366865;19;1833;-67
2023/08/05 12:16:35;;;;;;;;;;;;;;;;;;7367403;19;838;-66
2023/08/05 12:19:04;;;;;;;;;;;;;;;;;;7366875;19;792;-67
2023/08/05 12:21:32;;;;;;;;;;;;;;;;;;7364713;19;1337;-67
2023/08/05 12:24:00;;;;;;;;;;;;;;;;;;7366806;19;832;-67
2023/08/05 12:26:28;;;;;;;;;;;;;;;;;;7367583;19;860;-68
2023/08/05 12:28:56;;;;;;;;;;;;;;;;;;7366924;19;808;-68
2023/08/05 12:31:24;;;;;;;;;;;;;;;;;;7364814;19;1321;-68
2023/08/05 12:33:53;;;;;;;;;;;;;;;;;;7365920;19;1857;-68
2023/08/05 12:36:21;;;;;;;;;;;;;;;;;;7369799;19;1793;-67
2023/08/05 12:38:52;;;;;;;;;;;;;;;;;;7368758;19;1627;-68
2023/08/05 12:41:20;;;;;;;;;;;;;;;;;;7368537;19;1652;-67
2023/08/05 12:43:48;;;;;;;;;;;;;;;;;;7366212;19;804;-67
2023/08/05 12:46:16;;;;;;;;;;;;;;;;;;7367172;19;869;-68
2023/08/05 12:48:44;;;;;;;;;;;;;;;;;;7366551;19;1685;-68
2023/08/05 12:51:12;;;;;;;;;;;;;;;;;;7366466;19;1702;-68
2023/08/05 12:53:41;;;;;;;;;;;;;;;;;;7366942;19;2203;-68
2023/08/05 12:56:09;;;;;;;;;;;;;;;;;;7369565;19;2126;-69
2023/08/05 12:58:37;;;;;;;;;;;;;;;;;;7369443;19;1616;-68
2023/08/05 13:01:06;;;;;;;;;;;;;;;;;;7368226;19;1699;-68
2023/08/05 13:03:34;;;;;;;;;;;;;;;;;;7369120;19;1151;-68
2023/08/05 13:06:02;;;;;;;;;;;;;;;;;;7368385;19;1553;-68
2023/08/05 13:08:30;;;;;;;;;;;;;;;;;;7371627;19;1413;-67
2023/08/05 13:10:58;;;;;;;;;;;;;;;;;;7365212;19;1271;-66
2023/08/05 13:13:27;;;;;;;;;;;;;;;;;;7366675;19;1712;-68
2023/08/05 13:15:55;;;;;;;;;;;;;;;;;;7366275;19;1847;-68
2023/08/05 13:18:23;;;;;;;;;;;;;;;;;;7368930;19;1658;-66
2023/08/05 13:20:51;;;;;;;;;;;;;;;;;;7367738;19;1323;-66
2023/08/05 13:23:19;;;;;;;;;;;;;;;;;;7368687;19;895;-67
2023/08/05 13:25:47;;;;;;;;;;;;;;;;;;7365970;19;802;-67
2023/08/05 13:28:16;;;;;;;;;;;;;;;;;;7364745;19;850;-66
2023/08/05 13:30:44;;;;;;;;;;;;;;;;;;7363958;19;1313;-66
2023/08/05 13:33:12;;;;;;;;;;;;;;;;;;7366415;19;798;-66
2023/08/05 13:35:40;;;;;;;;;;;;;;;;;;7363299;19;1854;-65
2023/08/05 13:38:06;;;;;;;;;;;;;;;;;;7363405;19;804;-66
2023/08/05 13:40:35;;;;;;;;;;;;;;;;;;7365751;19;1956;-66
2023/08/05 13:43:03;;;;;;;;;;;;;;;;;;7367712;19;2037;-65
2023/08/05 13:45:33;;;;;;;;;;;;;;;;;;7368489;19;1549;-64
2023/08/05 13:48:01;;;;;;;;;;;;;;;;;;7374727;19;2483;-65
2023/08/05 13:50:29;;;;;;;;;;;;;;;;;;7372493;19;2070;-64
2023/08/05 13:52:58;;;;;;;;;;;;;;;;;;7371333;19;893;-64
2023/08/05 13:55:26;;;;;;;;;;;;;;;;;;7373787;19;1861;-64
2023/08/05 13:57:54;;;;;;;;;;;;;;;;;;7371336;19;833;-66
2023/08/05 14:00:22;;;;;;;;;;;;;;;;;;7372348;19;1644;-65
2023/08/05 14:02:50;;;;;;;;;;;;;;;;;;7374121;19;1229;-65
2023/08/05 14:05:18;;;;;;;;;;;;;;;;;;7371608;19;859;-65
2023/08/05 14:07:46;;;;;;;;;;;;;;;;;;7372786;19;1657;-65
2023/08/05 14:10:15;;;;;;;;;;;;;;;;;;7372473;19;1463;-65
2023/08/05 14:12:43;;;;;;;;;;;;;;;;;;7371281;19;821;-64
2023/08/05 14:15:11;;;;;;;;;;;;;;;;;;7370346;19;1856;-64
2023/08/05 14:17:39;;;;;;;;;;;;;;;;;;7371296;19;766;-64
2023/08/05 14:20:07;;;;;;;;;;;;;;;;;;7369104;19;1283;-64
2023/08/05 14:22:35;;;;;;;;;;;;;;;;;;7371020;19;815;-64
2023/08/05 14:25:03;;;;;;;;;;;;;;;;;;7371252;19;1728;-64
2023/08/05 14:27:32;;;;;;;;;;;;;;;;;;7376133;19;1782;-63
2023/08/05 14:30:00;;;;;;;;;;;;;;;;;;7369874;19;1252;-63
2023/08/05 14:32:28;;;;;;;;;;;;;;;;;;7370447;19;847;-63
2023/08/05 14:34:56;;;;;;;;;;;;;;;;;;7370423;19;1938;-63
2023/08/05 14:37:24;;;;;;;;;;;;;;;;;;7375490;19;1511;-64
2023/08/05 14:39:52;;;;;;;;;;;;;;;;;;7371291;19;2063;-64
2023/08/05 14:42:20;;;;;;;;;;;;;;;;;;7373631;19;1832;-66
2023/08/05 14:44:49;;;;;;;;;;;;;;;;;;7373603;19;2050;-64
2023/08/05 14:47:17;;;;;;;;;;;;;;;;;;7374843;19;1719;-64
2023/08/05 14:49:45;;;;;;;;;;;;;;;;;;7370292;19;1930;-64
2023/08/05 14:52:13;;;;;;;;;;;;;;;;;;7373122;19;1736;-65
2023/08/05 14:54:41;;;;;;;;;;;;;;;;;;7370369;19;1842;-63
2023/08/05 14:57:10;;;;;;;;;;;;;;;;;;7369809;19;812;-63
2023/08/05 14:59:38;;;;;;;;;;;;;;;;;;7368342;19;1315;-64
2023/08/05 15:02:06;;;;;;;;;;;;;;;;;;7369870;19;1690;-64
2023/08/05 15:04:34;;;;;;;;;;;;;;;;;;7371645;19;1681;-64
2023/08/05 15:07:02;;;;;;;;;;;;;;;;;;7369338;19;862;-64
2023/08/05 15:09:31;;;;;;;;;;;;;;;;;;7368493;19;1969;-64
2023/08/05 15:11:59;;;;;;;;;;;;;;;;;;7373338;19;1505;-64
2023/08/05 15:14:27;;;;;;;;;;;;;;;;;;7368899;19;1838;-64
2023/08/05 15:16:55;;;;;;;;;;;;;;;;;;7368632;19;795;-64
2023/08/05 15:19:24;;;;;;;;;;;;;;;;;;7368463;19;1345;-64
2023/08/05 15:21:52;;;;;;;;;;;;;;;;;;7368505;19;1670;-64
2023/08/05 15:24:20;;;;;;;;;;;;;;;;;;7372222;19;1828;-64
2023/08/05 15:26:48;;;;;;;;;;;;;;;;;;7372519;19;1520;-64
2023/08/05 15:29:17;;;;;;;;;;;;;;;;;;7367876;19;847;-63
2023/08/05 15:31:45;;;;;;;;;;;;;;;;;;7366797;19;2032;-64
2023/08/05 15:34:13;;;;;;;;;;;;;;;;;;7370915;19;1507;-65
2023/08/05 15:36:42;;;;;;;;;;;;;;;;;;7366994;19;1973;-64
2023/08/05 15:39:10;;;;;;;;;;;;;;;;;;7370204;19;1752;-64
2023/08/05 15:41:38;;;;;;;;;;;;;;;;;;7370436;19;1569;-64
2023/08/05 15:44:06;;;;;;;;;;;;;;;;;;7367812;19;833;-65
2023/08/05 15:46:36;;;;;;;;;;;;;;;;;;7368205;19;1757;-64
2023/08/05 15:49:04;;;;;;;;;;;;;;;;;;7369972;19;1778;-63
2023/08/05 15:51:32;;;;;;;;;;;;;;;;;;7367692;19;2021;-63
2023/08/05 15:54:00;;;;;;;;;;;;;;;;;;7371851;19;1392;-64
2023/08/05 15:56:28;;;;;;;;;;;;;;;;;;7365522;19;1846;-64
2023/08/05 15:58:56;;;;;;;;;;;;;;;;;;7368339;19;1853;-63
2023/08/05 16:01:26;;;;;;;;;;;;;;;;;;7370727;19;1678;-64
2023/08/05 16:03:54;;;;;;;;;;;;;;;;;;7368352;19;879;-64
2023/08/05 16:06:23;;;;;;;;;;;;;;;;;;7369234;19;1663;-63
2023/08/05 16:08:51;;;;;;;;;;;;;;;;;;7367076;19;1834;-64
2023/08/05 16:11:20;;;;;;;;;;;;;;;;;;7365762;19;1867;-64
2023/08/05 16:13:48;;;;;;;;;;;;;;;;;;7369781;19;1802;-65
2023/08/05 16:16:16;;;;;;;;;;;;;;;;;;7369497;19;1817;-64
2023/08/05 16:18:44;;;;;;;;;;;;;;;;;;7368522;19;953;-64
2023/08/05 16:21:12;;;;;;;;;;;;;;;;;;7365453;19;1790;-65
2023/08/05 16:23:41;;;;;;;;;;;;;;;;;;7369884;19;1647;-63
2023/08/05 16:26:09;;;;;;;;;;;;;;;;;;7367468;19;840;-64
2023/08/05 16:28:37;;;;;;;;;;;;;;;;;;7366111;19;1721;-63
2023/08/05 16:31:05;;;;;;;;;;;;;;;;;;7368925;19;1396;-64
2023/08/05 16:33:33;;;;;;;;;;;;;;;;;;7368690;19;827;-64
2023/08/05 16:36:01;;;;;;;;;;;;;;;;;;7368174;19;1841;-64
2023/08/05 16:38:29;;;;;;;;;;;;;;;;;;7370252;19;1677;-64
2023/08/05 16:40:58;;;;;;;;;;;;;;;;;;7366394;19;1885;-64
2023/08/05 16:43:26;;;;;;;;;;;;;;;;;;7371048;19;1448;-64
2023/08/05 16:45:54;;;;;;;;;;;;;;;;;;7369007;19;1668;-64
2023/08/05 16:48:22;;;;;;;;;;;;;;;;;;7368894;19;1170;-64
2023/08/05 16:50:50;;;;;;;;;;;;;;;;;;7364444;19;1336;-64
2023/08/05 16:53:19;;;;;;;;;;;;;;;;;;7370792;19;2060;-63
2023/08/05 16:55:47;;;;;;;;;;;;;;;;;;7365006;19;1831;-64
2023/08/05 16:58:15;;;;;;;;;;;;;;;;;;7366165;19;783;-64
2023/08/05 17:00:43;;;;;;;;;;;;;;;;;;7366806;19;1699;-64
2023/08/05 17:03:11;;;;;;;;;;;;;;;;;;7369567;19;1103;-64
2023/08/05 17:05:39;;;;;;;;;;;;;;;;;;7365733;19;804;-64
2023/08/05 17:08:07;;;;;;;;;;;;;;;;;;7366446;19;1555;-63
2023/08/05 17:10:36;;;;;;;;;;;;;;;;;;7368541;19;1506;-64
2023/08/05 17:13:04;;;;;;;;;;;;;;;;;;7365844;19;814;-64